createdAt,value
2022-12-03T00:00:12.534Z,45.30
2022-12-03T00:01:06.420Z,43.50
2022-12-03T00:01:39.767Z,41.70
2022-12-03T00:02:13.202Z,46.50
2022-12-03T00:02:46.715Z,48.20
2022-12-03T00:03:20.363Z,41.20
2022-12-03T00:03:54.920Z,85.30
2022-12-03T00:04:28.381Z,101.40
2022-12-03T00:05:01.683Z,97.40
2022-12-03T00:05:35.118Z,87.40
2022-12-03T00:06:09.580Z,70.00
2022-12-03T00:06:42.870Z,55.80
2022-12-03T00:07:16.995Z,53.50
2022-12-03T00:07:50.339Z,52.20
2022-12-03T00:08:23.808Z,50.00
2022-12-03T00:08:59.124Z,50.00
2022-12-03T00:09:34.807Z,43.20
2022-12-03T00:10:09.359Z,49.30
2022-12-03T00:10:48.644Z,49.30
2022-12-03T00:11:21.903Z,55.60
2022-12-03T00:11:57.744Z,47.20
2022-12-03T00:12:31.005Z,48.50
2022-12-03T00:13:04.464Z,45.60
2022-12-03T00:13:37.877Z,48.10
2022-12-03T00:14:11.268Z,52.40
2022-12-03T00:14:45.105Z,47.40
2022-12-03T00:15:18.498Z,44.70
2022-12-03T00:15:51.823Z,49.90
2022-12-03T00:16:26.463Z,42.60
2022-12-03T00:17:00.292Z,43.70
2022-12-03T00:17:34.113Z,42.90
2022-12-03T00:18:07.369Z,48.30
2022-12-03T00:18:42.549Z,52.00
2022-12-03T00:19:15.671Z,55.70
2022-12-03T00:19:48.888Z,49.00
2022-12-03T00:20:26.797Z,48.00
2022-12-03T00:21:00.073Z,45.90
2022-12-03T00:21:34.252Z,46.80
2022-12-03T00:22:07.603Z,47.60
2022-12-03T00:22:40.986Z,41.60
2022-12-03T00:23:14.213Z,40.60
2022-12-03T00:23:47.371Z,48.30
2022-12-03T00:24:20.670Z,93.00
2022-12-03T00:24:54.094Z,101.80
2022-12-03T00:25:28.863Z,62.00
2022-12-03T00:26:04.648Z,96.10
2022-12-03T00:26:37.952Z,92.50
2022-12-03T00:27:11.334Z,107.40
2022-12-03T00:27:45.154Z,102.30
2022-12-03T00:28:19.325Z,88.20
2022-12-03T00:28:54.924Z,110.00
2022-12-03T00:29:33.043Z,69.40
2022-12-03T00:30:07.343Z,50.80
2022-12-03T00:30:40.734Z,50.80
2022-12-03T00:31:14.163Z,55.40
2022-12-03T00:31:47.550Z,47.40
2022-12-03T00:32:20.740Z,63.80
2022-12-03T00:32:54.202Z,69.40
2022-12-03T00:33:27.488Z,56.60
2022-12-03T00:34:00.690Z,85.20
2022-12-03T00:34:38.668Z,74.90
2022-12-03T00:35:12.238Z,77.00
2022-12-03T00:35:45.500Z,93.70
2022-12-03T00:36:19.670Z,75.90
2022-12-03T00:36:56.598Z,73.00
2022-12-03T00:37:29.950Z,54.20
2022-12-03T00:38:03.466Z,47.80
2022-12-03T00:38:36.708Z,38.00
2022-12-03T00:39:10.039Z,40.80
2022-12-03T00:39:43.338Z,40.50
2022-12-03T00:40:16.632Z,35.10
2022-12-03T00:40:51.299Z,42.00
2022-12-03T00:41:24.794Z,51.30
2022-12-03T00:41:58.298Z,51.50
2022-12-03T00:42:31.643Z,40.80
2022-12-03T00:43:05.340Z,39.10
2022-12-03T00:43:41.134Z,56.10
2022-12-03T00:44:14.598Z,87.90
2022-12-03T00:44:47.754Z,85.30
2022-12-03T00:45:20.900Z,65.20
2022-12-03T00:45:58.052Z,66.90
2022-12-03T00:46:31.536Z,41.90
2022-12-03T00:47:05.175Z,44.90
2022-12-03T00:47:40.295Z,43.20
2022-12-03T00:48:15.613Z,52.90
2022-12-03T00:48:48.898Z,71.90
2022-12-03T00:49:22.304Z,78.00
2022-12-03T00:49:59.572Z,67.30
2022-12-03T00:50:32.821Z,67.90
2022-12-03T00:51:06.251Z,71.80
2022-12-03T00:51:39.520Z,55.80
2022-12-03T00:52:12.701Z,67.40
2022-12-03T00:52:46.040Z,56.10
2022-12-03T00:53:19.288Z,82.30
2022-12-03T00:53:52.470Z,55.70
2022-12-03T00:54:31.898Z,55.50
2022-12-03T00:55:09.370Z,59.50
2022-12-03T00:55:45.721Z,62.00
2022-12-03T00:56:18.922Z,55.50
2022-12-03T00:56:52.285Z,52.60
2022-12-03T00:57:25.488Z,52.50
2022-12-03T00:57:58.727Z,61.10
2022-12-03T00:58:34.464Z,61.60
2022-12-03T00:59:09.385Z,52.60
2022-12-03T00:59:42.705Z,44.50
2022-12-03T01:00:17.961Z,40.10
2022-12-03T01:00:52.289Z,36.40
2022-12-03T01:01:25.846Z,55.20
2022-12-03T01:02:01.695Z,55.70
2022-12-03T01:02:35.204Z,48.60
2022-12-03T01:03:13.901Z,43.50
2022-12-03T01:03:47.117Z,40.00
2022-12-03T01:04:20.500Z,44.70
2022-12-03T01:04:56.705Z,50.70
2022-12-03T01:05:32.229Z,58.10
2022-12-03T01:06:07.399Z,40.40
2022-12-03T01:06:40.694Z,61.00
2022-12-03T01:07:14.616Z,44.50
2022-12-03T01:07:47.953Z,53.00
2022-12-03T01:08:24.038Z,55.70
2022-12-03T01:08:57.542Z,57.90
2022-12-03T01:09:32.413Z,70.80
2022-12-03T01:10:07.429Z,65.70
2022-12-03T01:10:40.956Z,62.50
2022-12-03T01:11:32.951Z,57.60
2022-12-03T01:12:08.464Z,57.70
2022-12-03T01:12:41.603Z,82.10
2022-12-03T01:13:18.763Z,74.10
2022-12-03T01:13:51.977Z,62.70
2022-12-03T01:14:27.712Z,77.40
2022-12-03T01:15:05.299Z,87.10
2022-12-03T01:15:38.503Z,79.20
2022-12-03T01:16:11.767Z,97.20
2022-12-03T01:16:46.252Z,79.10
2022-12-03T01:17:19.512Z,62.60
2022-12-03T01:17:54.478Z,53.60
2022-12-03T01:18:27.773Z,43.00
2022-12-03T01:19:01.077Z,53.00
2022-12-03T01:19:35.507Z,67.90
2022-12-03T01:20:10.145Z,54.70
2022-12-03T01:20:43.562Z,59.80
2022-12-03T01:21:19.857Z,36.60
2022-12-03T01:21:53.050Z,35.00
2022-12-03T01:22:26.618Z,37.20
2022-12-03T01:22:59.815Z,39.30
2022-12-03T01:23:33.028Z,42.70
2022-12-03T01:24:06.601Z,70.10
2022-12-03T01:24:39.776Z,70.60
2022-12-03T01:25:13.028Z,56.80
2022-12-03T01:25:46.412Z,54.10
2022-12-03T01:26:19.624Z,59.70
2022-12-03T01:26:52.953Z,39.90
2022-12-03T01:27:26.325Z,37.90
2022-12-03T01:28:00.615Z,32.00
2022-12-03T01:28:33.964Z,54.20
2022-12-03T01:29:07.629Z,50.80
2022-12-03T01:29:41.065Z,72.60
2022-12-03T01:30:16.112Z,74.10
2022-12-03T01:31:09.391Z,55.40
2022-12-03T01:32:01.087Z,50.10
2022-12-03T01:32:34.386Z,45.80
2022-12-03T01:33:10.612Z,38.40
2022-12-03T01:33:43.892Z,36.40
2022-12-03T01:34:17.413Z,30.00
2022-12-03T01:34:53.365Z,31.80
2022-12-03T01:35:26.813Z,32.50
2022-12-03T01:35:59.981Z,34.20
2022-12-03T01:36:34.525Z,40.50
2022-12-03T01:37:07.818Z,31.10
2022-12-03T01:37:41.193Z,31.10
2022-12-03T01:38:14.433Z,33.60
2022-12-03T01:38:48.918Z,30.80
2022-12-03T01:39:22.173Z,30.10
2022-12-03T01:39:57.639Z,31.10
2022-12-03T01:40:31.883Z,38.20
2022-12-03T01:41:10.097Z,66.40
2022-12-03T01:41:49.234Z,68.70
2022-12-03T01:42:29.119Z,46.80
2022-12-03T01:43:02.363Z,45.90
2022-12-03T01:43:36.799Z,43.30
2022-12-03T01:44:32.465Z,57.60
2022-12-03T01:45:07.306Z,54.90
2022-12-03T01:45:40.451Z,41.90
2022-12-03T01:46:27.052Z,66.00
2022-12-03T01:47:04.416Z,39.80
2022-12-03T01:47:38.511Z,30.50
2022-12-03T01:48:16.878Z,55.40
2022-12-03T01:48:52.908Z,60.20
2022-12-03T01:49:42.544Z,37.80
2022-12-03T01:50:26.313Z,34.40
2022-12-03T01:50:59.553Z,31.40
2022-12-03T01:51:32.946Z,33.50
2022-12-03T01:52:06.670Z,36.30
2022-12-03T01:52:41.048Z,44.60
2022-12-03T01:53:16.223Z,37.20
2022-12-03T01:53:49.845Z,32.90
2022-12-03T01:54:31.281Z,32.40
2022-12-03T01:55:40.739Z,24.30
2022-12-03T01:56:18.613Z,29.00
2022-12-03T01:56:55.792Z,28.60
2022-12-03T01:57:40.143Z,25.70
2022-12-03T01:58:15.022Z,30.50
2022-12-03T01:58:48.782Z,39.60
2022-12-03T01:59:28.326Z,46.10
2022-12-03T02:00:02.057Z,33.50
2022-12-03T02:00:41.260Z,37.10
2022-12-03T02:01:17.871Z,47.20
2022-12-03T02:01:51.208Z,44.20
2022-12-03T02:02:32.393Z,40.00
2022-12-03T02:03:46.369Z,32.70
2022-12-03T02:04:25.439Z,25.40
2022-12-03T02:05:00.322Z,24.80
2022-12-03T02:05:34.122Z,25.10
2022-12-03T02:06:18.306Z,24.10
2022-12-03T02:06:51.741Z,29.20
2022-12-03T02:07:33.575Z,39.40
2022-12-03T02:08:37.492Z,40.90
2022-12-03T02:09:13.179Z,30.60
2022-12-03T02:09:46.573Z,30.90
2022-12-03T02:10:28.448Z,25.90
2022-12-03T02:11:05.938Z,26.00
2022-12-03T02:11:44.783Z,28.10
2022-12-03T02:12:25.189Z,39.60
2022-12-03T02:13:01.428Z,43.70
2022-12-03T02:13:37.603Z,41.40
2022-12-03T02:14:15.527Z,36.10
2022-12-03T02:14:49.293Z,35.20
2022-12-03T02:15:26.941Z,42.70
2022-12-03T02:16:00.204Z,49.80
2022-12-03T02:16:36.021Z,49.30
2022-12-03T02:17:13.212Z,36.60
2022-12-03T02:17:46.564Z,31.90
2022-12-03T02:18:20.764Z,30.30
2022-12-03T02:18:54.012Z,29.70
2022-12-03T02:19:30.138Z,27.40
2022-12-03T02:20:07.545Z,31.60
2022-12-03T02:21:11.300Z,40.60
2022-12-03T02:22:02.483Z,26.80
2022-12-03T02:23:10.091Z,27.30
2022-12-03T02:24:05.615Z,24.80
2022-12-03T02:24:55.935Z,24.30
2022-12-03T02:25:32.439Z,25.50
2022-12-03T02:26:08.640Z,24.20
2022-12-03T02:26:42.055Z,27.40
2022-12-03T02:27:15.391Z,25.70
2022-12-03T02:27:49.312Z,22.30
2022-12-03T02:28:25.346Z,21.20
2022-12-03T02:28:58.805Z,24.90
2022-12-03T02:29:33.098Z,32.60
2022-12-03T02:30:08.033Z,41.90
2022-12-03T02:30:41.384Z,36.60
2022-12-03T02:31:14.789Z,30.70
2022-12-03T02:31:48.170Z,28.70
2022-12-03T02:32:23.651Z,24.90
2022-12-03T02:33:00.563Z,28.40
2022-12-03T02:33:33.996Z,29.80
2022-12-03T02:34:07.750Z,29.40
2022-12-03T02:34:42.663Z,25.00
2022-12-03T02:35:27.430Z,25.00
2022-12-03T02:36:04.016Z,22.50
2022-12-03T02:36:40.372Z,22.10
2022-12-03T02:37:27.251Z,27.30
2022-12-03T02:38:08.579Z,24.80
2022-12-03T02:38:43.941Z,24.10
2022-12-03T02:39:19.208Z,25.30
2022-12-03T02:39:58.720Z,23.00
2022-12-03T02:40:34.117Z,30.50
2022-12-03T02:41:32.343Z,35.00
2022-12-03T02:42:27.182Z,22.10
2022-12-03T02:43:03.226Z,28.30
2022-12-03T02:43:37.534Z,19.40
2022-12-03T02:44:11.621Z,20.20
2022-12-03T02:44:45.029Z,29.90
2022-12-03T02:45:22.491Z,22.30
2022-12-03T02:45:58.623Z,29.80
2022-12-03T02:46:32.912Z,29.00
2022-12-03T02:47:06.420Z,24.50
2022-12-03T02:47:44.583Z,40.60
2022-12-03T02:48:25.765Z,31.70
2022-12-03T02:51:22.047Z,30.70
2022-12-03T02:51:58.775Z,34.20
2022-12-03T02:52:34.506Z,34.20
2022-12-03T02:53:12.813Z,30.70
2022-12-03T02:53:48.492Z,30.10
2022-12-03T02:54:22.942Z,33.70
2022-12-03T02:54:56.459Z,30.40
2022-12-03T02:55:36.532Z,36.10
2022-12-03T02:56:25.465Z,38.40
2022-12-03T02:56:59.940Z,27.40
2022-12-03T02:57:35.204Z,32.00
2022-12-03T02:58:11.259Z,48.30
2022-12-03T02:58:55.464Z,37.80
2022-12-03T02:59:29.018Z,34.00
2022-12-03T03:00:06.180Z,35.60
2022-12-03T03:00:40.200Z,36.10
2022-12-03T03:01:15.624Z,29.80
2022-12-03T03:01:49.922Z,28.30
2022-12-03T03:02:23.424Z,24.60
2022-12-03T03:02:57.378Z,24.70
2022-12-03T03:03:33.103Z,24.70
2022-12-03T03:04:07.020Z,27.40
2022-12-03T03:04:41.470Z,34.80
2022-12-03T03:05:18.094Z,26.60
2022-12-03T03:05:51.902Z,25.60
2022-12-03T03:06:33.220Z,31.90
2022-12-03T03:07:06.577Z,26.40
2022-12-03T03:07:40.881Z,24.00
2022-12-03T03:08:14.978Z,34.00
2022-12-03T03:08:49.466Z,33.30
2022-12-03T03:09:23.023Z,38.00
2022-12-03T03:09:56.541Z,28.10
2022-12-03T03:10:30.975Z,41.70
2022-12-03T03:11:04.397Z,34.70
2022-12-03T03:11:37.998Z,33.50
2022-12-03T03:12:11.797Z,27.30
2022-12-03T03:12:45.083Z,28.00
2022-12-03T03:13:19.918Z,37.40
2022-12-03T03:13:53.353Z,42.70
2022-12-03T03:14:26.654Z,41.50
2022-12-03T03:15:03.188Z,43.00
2022-12-03T03:15:38.284Z,32.60
2022-12-03T03:16:11.617Z,26.80
2022-12-03T03:16:45.042Z,21.10
2022-12-03T03:17:18.499Z,20.70
2022-12-03T03:17:52.359Z,19.30
2022-12-03T03:18:25.707Z,18.50
2022-12-03T03:18:59.028Z,16.80
2022-12-03T03:19:33.148Z,15.40
2022-12-03T03:20:08.838Z,17.70
2022-12-03T03:20:42.838Z,30.90
2022-12-03T03:21:16.098Z,30.40
2022-12-03T03:21:49.280Z,24.50
2022-12-03T03:22:22.555Z,21.70
2022-12-03T03:23:05.978Z,23.60
2022-12-03T03:23:41.653Z,17.90
2022-12-03T03:24:14.905Z,16.80
2022-12-03T03:24:48.103Z,20.20
2022-12-03T03:25:22.551Z,16.90
2022-12-03T03:26:14.089Z,15.30
2022-12-03T03:26:47.897Z,16.30
2022-12-03T03:27:21.168Z,16.20
2022-12-03T03:27:56.927Z,15.50
2022-12-03T03:28:31.524Z,16.80
2022-12-03T03:29:05.235Z,14.10
2022-12-03T03:29:40.639Z,16.30
2022-12-03T03:30:17.333Z,22.50
2022-12-03T03:30:55.992Z,22.50
2022-12-03T03:31:29.389Z,17.50
2022-12-03T03:32:03.705Z,18.90
2022-12-03T03:32:38.598Z,18.20
2022-12-03T03:33:13.722Z,18.70
2022-12-03T03:33:49.863Z,19.60
2022-12-03T03:34:23.128Z,19.40
2022-12-03T03:35:02.562Z,16.70
2022-12-03T03:35:37.343Z,19.80
2022-12-03T03:36:13.061Z,15.90
2022-12-03T03:36:47.147Z,17.50
2022-12-03T03:37:24.932Z,16.10
2022-12-03T03:38:02.893Z,15.30
2022-12-03T03:38:37.245Z,16.10
2022-12-03T03:39:16.118Z,16.70
2022-12-03T03:39:49.595Z,14.20
2022-12-03T03:40:22.854Z,17.30
2022-12-03T03:40:58.272Z,27.90
2022-12-03T03:41:36.829Z,27.30
2022-12-03T03:42:10.198Z,22.50
2022-12-03T03:42:43.518Z,19.90
2022-12-03T03:43:17.913Z,18.60
2022-12-03T03:43:51.227Z,26.50
2022-12-03T03:44:26.748Z,21.20
2022-12-03T03:45:00.181Z,16.70
2022-12-03T03:45:33.800Z,12.70
2022-12-03T03:46:07.851Z,17.70
2022-12-03T03:46:41.507Z,24.00
2022-12-03T03:47:16.180Z,27.50
2022-12-03T03:47:53.047Z,28.10
2022-12-03T03:48:26.611Z,30.10
2022-12-03T03:49:03.803Z,20.60
2022-12-03T03:49:37.303Z,19.80
2022-12-03T03:50:12.413Z,17.00
2022-12-03T03:50:46.470Z,16.20
2022-12-03T03:51:20.348Z,17.70
2022-12-03T03:51:55.103Z,16.80
2022-12-03T03:52:28.694Z,17.90
2022-12-03T03:53:06.313Z,19.80
2022-12-03T03:53:49.790Z,15.20
2022-12-03T03:54:23.889Z,12.40
2022-12-03T03:55:00.275Z,11.80
2022-12-03T03:55:35.890Z,12.30
2022-12-03T03:56:09.849Z,12.80
2022-12-03T03:56:43.357Z,14.80
2022-12-03T03:57:16.847Z,17.10
2022-12-03T03:57:50.628Z,16.10
2022-12-03T03:58:26.433Z,14.80
2022-12-03T03:59:00.085Z,16.20
2022-12-03T03:59:35.529Z,16.50
2022-12-03T04:00:09.561Z,14.70
2022-12-03T04:00:46.869Z,14.90
2022-12-03T04:01:20.283Z,15.60
2022-12-03T04:01:53.653Z,16.10
2022-12-03T04:02:28.799Z,17.00
2022-12-03T04:03:03.968Z,15.60
2022-12-03T04:03:37.562Z,14.80
2022-12-03T04:04:26.788Z,13.50
2022-12-03T04:05:00.442Z,15.40
2022-12-03T04:05:33.868Z,17.30
2022-12-03T04:06:07.407Z,17.20
2022-12-03T04:06:40.710Z,15.40
2022-12-03T04:07:14.984Z,13.40
2022-12-03T04:07:53.337Z,14.80
2022-12-03T04:08:26.626Z,15.00
2022-12-03T04:09:07.147Z,14.70
2022-12-03T04:09:40.264Z,13.20
2022-12-03T04:10:33.114Z,13.50
2022-12-03T04:11:25.263Z,13.00
2022-12-03T04:12:23.475Z,14.70
2022-12-03T04:12:56.828Z,16.30
2022-12-03T04:13:30.048Z,16.80
2022-12-03T04:14:03.477Z,16.60
2022-12-03T04:14:36.699Z,16.10
2022-12-03T04:15:14.367Z,13.90
2022-12-03T04:15:48.060Z,14.20
2022-12-03T04:16:22.202Z,15.10
2022-12-03T04:16:55.548Z,18.20
2022-12-03T04:17:28.853Z,17.80
2022-12-03T04:18:20.701Z,17.00
2022-12-03T04:18:54.008Z,43.70
2022-12-03T04:19:27.272Z,42.40
2022-12-03T04:20:00.552Z,28.70
2022-12-03T04:20:33.829Z,20.80
2022-12-03T04:21:26.285Z,24.90
2022-12-03T04:22:19.244Z,22.20
2022-12-03T04:22:52.428Z,21.80
2022-12-03T04:23:30.733Z,19.50
2022-12-03T04:24:05.813Z,19.10
2022-12-03T04:24:38.981Z,17.80
2022-12-03T04:25:31.004Z,18.00
2022-12-03T04:26:22.976Z,19.00
2022-12-03T04:27:17.493Z,33.00
2022-12-03T04:28:10.397Z,23.20
2022-12-03T04:28:49.547Z,27.40
2022-12-03T04:29:23.516Z,24.80
2022-12-03T04:29:56.668Z,23.60
2022-12-03T04:30:30.021Z,22.30
2022-12-03T04:31:26.040Z,20.20
2022-12-03T04:32:18.039Z,18.00
2022-12-03T04:33:10.069Z,24.40
2022-12-03T04:34:02.056Z,20.90
2022-12-03T04:34:54.528Z,23.40
2022-12-03T04:35:43.183Z,25.00
2022-12-03T04:36:20.388Z,22.10
2022-12-03T04:36:54.776Z,30.00
2022-12-03T04:37:28.253Z,29.40
2022-12-03T04:38:02.663Z,21.60
2022-12-03T04:38:35.912Z,24.40
2022-12-03T04:39:09.107Z,28.20
2022-12-03T04:39:42.323Z,29.40
2022-12-03T04:40:34.084Z,25.30
2022-12-03T04:41:07.299Z,38.30
2022-12-03T04:41:40.722Z,42.20
2022-12-03T04:42:14.244Z,32.60
2022-12-03T04:42:48.685Z,21.10
2022-12-03T04:43:22.093Z,24.30
2022-12-03T04:44:13.971Z,19.10
2022-12-03T04:44:47.342Z,16.50
2022-12-03T04:45:20.603Z,16.90
2022-12-03T04:45:53.898Z,18.30
2022-12-03T04:46:31.901Z,16.40
2022-12-03T04:47:16.646Z,15.00
2022-12-03T04:47:52.854Z,16.30
2022-12-03T04:48:26.571Z,15.30
2022-12-03T04:49:01.962Z,15.80
2022-12-03T04:49:37.178Z,17.20
2022-12-03T04:50:11.323Z,21.60
2022-12-03T04:50:44.615Z,27.40
2022-12-03T04:51:17.795Z,32.70
2022-12-03T04:51:51.063Z,20.90
2022-12-03T04:52:24.308Z,30.30
2022-12-03T04:52:58.263Z,19.10
2022-12-03T04:53:36.219Z,20.50
2022-12-03T04:54:12.302Z,18.10
2022-12-03T04:54:45.663Z,18.10
2022-12-03T04:55:18.850Z,16.30
2022-12-03T04:55:54.626Z,16.30
2022-12-03T04:56:27.991Z,15.30
2022-12-03T04:57:01.628Z,17.70
2022-12-03T04:57:34.825Z,17.70
2022-12-03T04:58:08.069Z,17.40
2022-12-03T04:58:41.288Z,16.90
2022-12-03T04:59:16.527Z,16.70
2022-12-03T04:59:50.025Z,16.00
2022-12-03T05:00:23.465Z,18.70
2022-12-03T05:00:56.831Z,16.00
2022-12-03T05:01:31.353Z,16.90
2022-12-03T05:02:06.352Z,17.80
2022-12-03T05:02:41.606Z,20.20
2022-12-03T05:03:14.976Z,24.20
2022-12-03T05:03:48.245Z,19.50
2022-12-03T05:04:21.545Z,23.80
2022-12-03T05:04:56.830Z,30.20
2022-12-03T05:05:32.595Z,39.40
2022-12-03T05:06:05.913Z,50.10
2022-12-03T05:06:40.323Z,39.60
2022-12-03T05:07:13.602Z,29.60
2022-12-03T05:07:48.673Z,32.90
2022-12-03T05:08:21.942Z,33.70
2022-12-03T05:08:55.141Z,26.60
2022-12-03T05:09:29.393Z,37.10
2022-12-03T05:10:02.535Z,31.80
2022-12-03T05:10:35.729Z,27.30
2022-12-03T05:11:09.076Z,22.40
2022-12-03T05:11:44.084Z,24.40
2022-12-03T05:12:17.374Z,22.10
2022-12-03T05:12:51.890Z,29.70
2022-12-03T05:13:25.285Z,27.20
2022-12-03T05:13:58.493Z,25.30
2022-12-03T05:14:33.588Z,20.60
2022-12-03T05:15:07.651Z,18.10
2022-12-03T05:15:40.914Z,15.10
2022-12-03T05:16:14.235Z,16.80
2022-12-03T05:16:47.659Z,16.50
2022-12-03T05:17:24.006Z,17.00
2022-12-03T05:17:57.236Z,14.80
2022-12-03T05:18:30.451Z,16.30
2022-12-03T05:19:04.923Z,15.50
2022-12-03T05:19:57.021Z,14.80
2022-12-03T05:20:43.841Z,14.60
2022-12-03T05:21:19.093Z,14.50
2022-12-03T05:21:52.338Z,14.80
2022-12-03T05:22:25.849Z,14.90
2022-12-03T05:22:59.037Z,15.30
2022-12-03T05:23:32.337Z,13.70
2022-12-03T05:24:06.032Z,14.10
2022-12-03T05:24:39.308Z,15.10
2022-12-03T05:25:14.841Z,17.10
2022-12-03T05:25:48.157Z,14.60
2022-12-03T05:26:22.927Z,13.90
2022-12-03T05:26:56.172Z,14.70
2022-12-03T05:27:29.418Z,14.50
2022-12-03T05:28:06.792Z,15.20
2022-12-03T05:28:40.178Z,13.20
2022-12-03T05:29:13.376Z,14.00
2022-12-03T05:29:46.705Z,16.60
2022-12-03T05:30:19.944Z,13.20
2022-12-03T05:30:53.295Z,19.20
2022-12-03T05:31:26.846Z,15.30
2022-12-03T05:32:00.083Z,14.30
2022-12-03T05:32:33.313Z,14.70
2022-12-03T05:33:07.763Z,16.60
2022-12-03T05:33:44.223Z,15.00
2022-12-03T05:34:17.928Z,13.00
2022-12-03T05:34:51.338Z,15.50
2022-12-03T05:35:24.903Z,19.70
2022-12-03T05:35:58.507Z,19.40
2022-12-03T05:36:31.984Z,17.10
2022-12-03T05:37:05.250Z,16.90
2022-12-03T05:37:38.629Z,16.20
2022-12-03T05:38:11.838Z,16.10
2022-12-03T05:38:45.043Z,18.60
2022-12-03T05:39:18.246Z,16.40
2022-12-03T05:39:53.983Z,17.30
2022-12-03T05:40:27.183Z,14.30
2022-12-03T05:41:00.737Z,15.40
2022-12-03T05:41:52.580Z,14.00
2022-12-03T05:42:44.796Z,14.00
2022-12-03T05:43:18.224Z,13.90
2022-12-03T05:43:51.443Z,14.50
2022-12-03T05:44:26.847Z,13.40
2022-12-03T05:45:02.492Z,14.50
2022-12-03T05:45:38.597Z,13.30
2022-12-03T05:46:11.889Z,13.20
2022-12-03T05:46:45.121Z,13.60
2022-12-03T05:47:18.343Z,14.00
2022-12-03T05:47:53.417Z,13.10
2022-12-03T05:48:28.104Z,12.30
2022-12-03T05:49:01.348Z,12.90
2022-12-03T05:49:34.748Z,13.40
2022-12-03T05:50:08.367Z,14.20
2022-12-03T05:50:45.962Z,13.20
2022-12-03T05:51:25.091Z,12.50
2022-12-03T05:52:00.753Z,13.30
2022-12-03T05:52:34.988Z,14.80
2022-12-03T05:53:08.182Z,13.40
2022-12-03T05:53:41.382Z,13.40
2022-12-03T05:54:14.655Z,13.00
2022-12-03T05:54:50.038Z,13.80
2022-12-03T05:55:25.425Z,13.50
2022-12-03T05:55:58.858Z,12.90
2022-12-03T05:56:33.985Z,14.20
2022-12-03T05:57:07.232Z,13.20
2022-12-03T05:57:41.911Z,13.80
2022-12-03T05:58:15.178Z,12.70
2022-12-03T05:58:48.410Z,13.60
2022-12-03T05:59:21.756Z,12.30
2022-12-03T05:59:55.007Z,13.30
2022-12-03T06:00:31.262Z,13.70
2022-12-03T06:01:04.420Z,12.70
2022-12-03T06:01:38.867Z,13.50
2022-12-03T06:02:12.289Z,13.10
2022-12-03T06:02:45.836Z,13.70
2022-12-03T06:03:19.591Z,13.30
2022-12-03T06:03:53.160Z,12.40
2022-12-03T06:04:26.475Z,13.00
2022-12-03T06:04:59.895Z,13.20
2022-12-03T06:05:35.052Z,12.60
2022-12-03T06:06:08.487Z,13.40
2022-12-03T06:06:41.728Z,13.10
2022-12-03T06:07:15.010Z,13.90
2022-12-03T06:07:52.546Z,13.80
2022-12-03T06:08:25.798Z,13.30
2022-12-03T06:08:59.332Z,12.80
2022-12-03T06:09:33.760Z,14.10
2022-12-03T06:10:12.948Z,12.90
2022-12-03T06:10:46.199Z,12.50
2022-12-03T06:11:19.451Z,12.70
2022-12-03T06:11:54.319Z,12.30
2022-12-03T06:12:27.767Z,12.10
2022-12-03T06:13:01.154Z,12.40
2022-12-03T06:13:34.574Z,12.30
2022-12-03T06:14:08.034Z,12.60
2022-12-03T06:14:41.201Z,12.20
2022-12-03T06:15:16.777Z,12.50
2022-12-03T06:15:50.137Z,13.20
2022-12-03T06:16:23.352Z,13.60
2022-12-03T06:16:56.663Z,12.80
2022-12-03T06:17:29.917Z,13.00
2022-12-03T06:18:03.232Z,13.90
2022-12-03T06:18:38.997Z,13.80
2022-12-03T06:19:12.156Z,14.00
2022-12-03T06:19:45.380Z,14.10
2022-12-03T06:20:20.450Z,13.60
2022-12-03T06:20:53.808Z,12.50
2022-12-03T06:21:27.007Z,12.90
2022-12-03T06:22:00.367Z,13.10
2022-12-03T06:22:33.677Z,14.70
2022-12-03T06:23:06.952Z,13.80
2022-12-03T06:23:44.886Z,13.40
2022-12-03T06:24:18.333Z,14.70
2022-12-03T06:24:51.881Z,13.70
2022-12-03T06:25:25.342Z,13.20
2022-12-03T06:25:58.589Z,13.40
2022-12-03T06:26:31.804Z,13.40
2022-12-03T06:27:05.500Z,13.00
2022-12-03T06:27:38.747Z,14.80
2022-12-03T06:28:11.932Z,13.80
2022-12-03T06:28:47.753Z,14.20
2022-12-03T06:29:22.313Z,13.90
2022-12-03T06:29:55.504Z,13.10
2022-12-03T06:30:28.710Z,13.90
2022-12-03T06:31:06.340Z,12.90
2022-12-03T06:31:39.681Z,13.00
2022-12-03T06:32:13.176Z,13.50
2022-12-03T06:32:46.412Z,12.80
2022-12-03T06:33:19.606Z,13.10
2022-12-03T06:33:55.738Z,14.30
2022-12-03T06:34:28.979Z,13.40
2022-12-03T06:35:02.509Z,15.00
2022-12-03T06:35:35.971Z,13.50
2022-12-03T06:36:09.389Z,13.70
2022-12-03T06:36:42.803Z,13.90
2022-12-03T06:37:16.170Z,15.00
2022-12-03T06:37:49.876Z,14.20
2022-12-03T06:38:23.316Z,13.10
2022-12-03T06:38:56.545Z,13.00
2022-12-03T06:39:29.903Z,13.10
2022-12-03T06:40:03.271Z,13.60
2022-12-03T06:40:38.460Z,14.20
2022-12-03T06:41:11.804Z,13.30
2022-12-03T06:41:45.363Z,13.80
2022-12-03T06:42:19.372Z,13.70
2022-12-03T06:42:53.740Z,12.20
2022-12-03T06:43:31.142Z,14.20
2022-12-03T06:44:04.784Z,13.70
2022-12-03T06:44:38.048Z,14.00
2022-12-03T06:45:14.359Z,15.50
2022-12-03T06:45:48.002Z,13.80
2022-12-03T06:46:23.665Z,13.90
2022-12-03T06:46:56.913Z,14.10
2022-12-03T06:47:30.246Z,13.80
2022-12-03T06:48:03.519Z,14.60
2022-12-03T06:48:36.739Z,14.40
2022-12-03T06:49:10.078Z,13.70
2022-12-03T06:49:44.255Z,14.70
2022-12-03T06:50:20.566Z,13.70
2022-12-03T06:50:56.797Z,13.00
2022-12-03T06:51:31.660Z,13.40
2022-12-03T06:52:05.105Z,14.30
2022-12-03T06:52:38.496Z,13.50
2022-12-03T06:53:19.040Z,11.50
2022-12-03T06:53:52.253Z,13.10
2022-12-03T06:54:25.454Z,13.20
2022-12-03T06:54:58.643Z,13.00
2022-12-03T06:55:31.921Z,14.20
2022-12-03T06:56:05.645Z,14.60
2022-12-03T06:56:44.883Z,12.60
2022-12-03T06:57:18.807Z,14.70
2022-12-03T06:57:51.937Z,12.60
2022-12-03T06:58:25.357Z,13.60
2022-12-03T06:59:00.997Z,14.70
2022-12-03T06:59:35.940Z,14.40
2022-12-03T07:00:11.510Z,14.00
2022-12-03T07:00:44.761Z,13.70
2022-12-03T07:01:19.752Z,14.10
2022-12-03T07:01:53.182Z,13.00
2022-12-03T07:02:26.559Z,13.70
2022-12-03T07:02:59.876Z,14.10
2022-12-03T07:03:33.578Z,15.50
2022-12-03T07:04:06.862Z,14.90
2022-12-03T07:04:44.791Z,13.70
2022-12-03T07:05:20.144Z,14.40
2022-12-03T07:05:53.487Z,14.00
2022-12-03T07:06:27.542Z,13.10
2022-12-03T07:07:00.890Z,15.40
2022-12-03T07:07:34.159Z,14.30
2022-12-03T07:08:07.498Z,13.50
2022-12-03T07:08:40.948Z,13.70
2022-12-03T07:09:17.111Z,14.90
2022-12-03T07:09:53.569Z,13.50
2022-12-03T07:10:26.906Z,13.70
2022-12-03T07:11:00.244Z,14.20
2022-12-03T07:11:33.511Z,14.00
2022-12-03T07:12:06.939Z,15.20
2022-12-03T07:12:40.147Z,14.30
2022-12-03T07:13:15.581Z,14.30
2022-12-03T07:13:48.750Z,17.40
2022-12-03T07:14:21.946Z,14.20
2022-12-03T07:14:55.436Z,14.40
2022-12-03T07:15:29.033Z,15.40
2022-12-03T07:16:02.281Z,16.00
2022-12-03T07:16:39.055Z,14.90
2022-12-03T07:17:12.494Z,15.30
2022-12-03T07:17:45.858Z,14.00
2022-12-03T07:18:19.251Z,15.90
2022-12-03T07:18:52.501Z,14.40
2022-12-03T07:19:32.104Z,14.70
2022-12-03T07:20:08.852Z,14.90
2022-12-03T07:20:42.779Z,14.70
2022-12-03T07:21:16.184Z,13.00
2022-12-03T07:21:49.514Z,14.60
2022-12-03T07:22:22.852Z,14.10
2022-12-03T07:22:56.543Z,13.90
2022-12-03T07:23:29.745Z,12.90
2022-12-03T07:24:03.189Z,12.90
2022-12-03T07:24:36.915Z,14.20
2022-12-03T07:25:14.145Z,14.10
2022-12-03T07:25:52.082Z,13.50
2022-12-03T07:26:26.354Z,14.50
2022-12-03T07:27:01.061Z,15.20
2022-12-03T07:27:34.529Z,14.70
2022-12-03T07:28:08.105Z,14.90
2022-12-03T07:28:41.773Z,15.30
2022-12-03T07:29:15.431Z,14.20
2022-12-03T07:29:51.741Z,13.20
2022-12-03T07:30:25.809Z,14.80
2022-12-03T07:30:59.163Z,14.50
2022-12-03T07:31:32.971Z,15.30
2022-12-03T07:32:07.228Z,13.50
2022-12-03T07:32:40.699Z,14.60
2022-12-03T07:33:13.919Z,14.30
2022-12-03T07:33:47.468Z,13.50
2022-12-03T07:34:20.733Z,13.50
2022-12-03T07:34:56.598Z,14.30
2022-12-03T07:35:32.167Z,14.70
2022-12-03T07:36:05.596Z,15.40
2022-12-03T07:36:43.482Z,14.30
2022-12-03T07:37:21.428Z,15.60
2022-12-03T07:37:56.367Z,13.70
2022-12-03T07:38:29.619Z,14.60
2022-12-03T07:39:02.912Z,13.90
2022-12-03T07:39:37.343Z,13.00
2022-12-03T07:40:12.904Z,13.70
2022-12-03T07:40:46.128Z,13.30
2022-12-03T07:41:19.431Z,14.30